createdAt,value
2022-11-18T00:00:57.036Z,11.00
2022-11-18T00:06:01.414Z,11.73
2022-11-18T00:11:06.263Z,13.40
2022-11-18T00:16:10.481Z,14.43
2022-11-18T00:21:14.924Z,14.40
2022-11-18T00:26:17.783Z,14.93
2022-11-18T00:31:20.422Z,16.10
2022-11-18T00:36:24.614Z,16.52
2022-11-18T00:41:47.541Z,16.80
2022-11-18T00:46:50.137Z,16.48
2022-11-18T00:51:54.003Z,16.73
2022-11-18T00:56:56.514Z,15.85
2022-11-18T01:01:59.035Z,17.30
2022-11-18T01:07:02.932Z,13.18
2022-11-18T01:12:24.177Z,13.77
2022-11-18T01:17:30.382Z,11.98
2022-11-18T01:22:34.255Z,14.05
2022-11-18T01:27:36.830Z,18.30
2022-11-18T01:32:39.212Z,14.70
2022-11-18T01:37:42.972Z,15.80
2022-11-18T01:42:45.454Z,13.60
2022-11-18T01:47:50.419Z,14.45
2022-11-18T01:52:57.027Z,11.05
2022-11-18T01:58:02.369Z,13.82
2022-11-18T02:03:04.959Z,16.02
2022-11-18T02:08:08.924Z,15.32
2022-11-18T02:13:12.838Z,16.05
2022-11-18T02:18:19.082Z,18.38
2022-11-18T02:23:48.416Z,19.60
2022-11-18T02:28:59.825Z,18.15
2022-11-18T02:34:04.968Z,21.35
2022-11-18T02:39:09.239Z,18.20
2022-11-18T02:44:14.566Z,17.15
2022-11-18T02:49:21.225Z,18.35
2022-11-18T02:54:24.427Z,18.83
2022-11-18T02:59:28.779Z,24.63
2022-11-18T03:04:31.596Z,23.55
2022-11-18T03:09:36.077Z,18.43
2022-11-18T03:14:46.300Z,18.35
2022-11-18T03:19:55.001Z,22.00
2022-11-18T03:25:01.687Z,20.42
2022-11-18T03:30:06.959Z,19.38
2022-11-18T03:35:10.845Z,21.58
2022-11-18T03:40:16.402Z,25.55
2022-11-18T03:45:21.501Z,17.45
2022-11-18T03:50:27.307Z,15.63
2022-11-18T03:55:31.717Z,17.80
2022-11-18T04:00:38.935Z,16.83
2022-11-18T04:05:42.561Z,16.45
2022-11-18T04:10:47.910Z,16.05
2022-11-18T04:15:51.905Z,16.05
2022-11-18T04:20:54.514Z,19.88
2022-11-18T04:25:56.913Z,18.87
2022-11-18T04:31:00.632Z,18.88
2022-11-18T04:36:03.039Z,18.08
2022-11-18T04:41:05.573Z,22.50
2022-11-18T04:46:09.384Z,21.80
2022-11-18T04:51:11.807Z,21.25
2022-11-18T04:56:14.208Z,16.63
2022-11-18T05:01:18.041Z,21.00
2022-11-18T05:06:20.755Z,19.30
2022-11-18T05:11:40.685Z,23.73
2022-11-18T05:16:44.706Z,24.30
2022-11-18T05:21:47.149Z,18.98
2022-11-18T05:26:49.706Z,22.13
2022-11-18T05:31:53.556Z,20.57
2022-11-18T05:36:56.179Z,19.42
2022-11-18T05:42:16.133Z,24.13
2022-11-18T05:47:20.126Z,21.88
2022-11-18T05:52:22.719Z,22.02
2022-11-18T05:57:25.447Z,19.10
2022-11-18T06:02:30.783Z,20.87
2022-11-18T06:07:36.518Z,17.60
2022-11-18T06:12:42.093Z,22.27
2022-11-18T06:17:47.962Z,22.63
2022-11-18T06:22:52.141Z,22.33
2022-11-18T06:27:56.584Z,21.50
2022-11-18T06:33:00.430Z,25.15
2022-11-18T06:38:02.910Z,25.27
2022-11-18T06:43:24.364Z,24.75
2022-11-18T06:48:28.229Z,24.30
2022-11-18T06:53:30.674Z,26.13
2022-11-18T06:58:33.264Z,22.85
2022-11-18T07:03:37.060Z,21.80
2022-11-18T07:08:40.377Z,25.52
2022-11-18T07:13:43.907Z,25.23
2022-11-18T07:18:48.880Z,27.15
2022-11-18T07:23:51.724Z,21.08
2022-11-18T07:28:54.949Z,24.95
2022-11-18T07:33:58.753Z,24.95
2022-11-18T07:39:02.927Z,23.67
2022-11-18T07:44:06.525Z,22.88
2022-11-18T07:49:10.367Z,26.38
2022-11-18T07:54:13.955Z,24.88
2022-11-18T07:59:16.654Z,28.08
2022-11-18T08:04:20.730Z,24.95
2022-11-18T08:09:23.157Z,25.23
2022-11-18T08:14:25.602Z,24.45
2022-11-18T08:19:29.562Z,24.98
2022-11-18T08:24:31.976Z,22.17
2022-11-18T08:29:34.373Z,20.95
2022-11-18T08:34:38.364Z,21.65
2022-11-18T08:39:40.789Z,26.75
2022-11-18T08:44:43.304Z,21.40
2022-11-18T08:49:47.436Z,23.50
2022-11-18T08:54:49.877Z,20.00
2022-11-18T08:59:52.339Z,20.83
2022-11-18T09:04:56.253Z,22.48
2022-11-18T09:09:58.703Z,18.30
2022-11-18T09:15:17.064Z,20.08
2022-11-18T09:20:21.215Z,18.88
2022-11-18T09:25:23.677Z,24.15
2022-11-18T09:30:27.010Z,19.05
2022-11-18T09:35:30.814Z,20.58
2022-11-18T09:40:33.398Z,18.95
2022-11-18T09:45:39.238Z,18.40
2022-11-18T09:50:49.803Z,17.55
2022-11-18T09:55:53.453Z,19.52
2022-11-18T10:00:57.296Z,17.83
2022-11-18T10:06:03.653Z,17.08
2022-11-18T10:11:09.285Z,14.70
2022-11-18T10:16:20.256Z,13.20
2022-11-18T10:21:31.685Z,9.85
2022-11-18T10:26:35.297Z,10.52
2022-11-18T10:31:38.511Z,9.50
2022-11-18T10:36:42.254Z,9.15
2022-11-18T10:41:47.537Z,7.63
2022-11-18T10:46:49.888Z,7.75
2022-11-18T10:52:07.456Z,8.47
2022-11-18T10:57:14.824Z,10.32
2022-11-18T11:02:18.766Z,8.40
2022-11-18T11:07:27.322Z,9.95
2022-11-18T11:12:30.105Z,9.13
2022-11-18T11:17:34.421Z,7.53
2022-11-18T11:22:38.794Z,8.07
2022-11-18T11:33:23.007Z,7.63
2022-11-18T11:38:32.630Z,12.60
2022-11-18T11:43:39.501Z,8.80
2022-11-18T11:48:50.785Z,10.68
2022-11-18T11:54:03.790Z,11.60
2022-11-18T11:59:09.691Z,12.67
2022-11-18T12:04:18.637Z,10.45
2022-11-18T12:09:27.699Z,11.93
2022-11-18T12:14:37.108Z,24.38
2022-11-18T12:19:42.443Z,18.38
2022-11-18T12:24:46.173Z,13.82
2022-11-18T12:29:56.354Z,10.35
2022-11-18T12:35:00.973Z,11.80
2022-11-18T12:40:04.963Z,9.48
2022-11-18T12:45:22.299Z,6.47
2022-11-18T12:50:44.713Z,8.73
2022-11-18T12:55:48.509Z,7.57
2022-11-18T13:00:53.674Z,8.50
2022-11-18T13:06:00.395Z,10.27
2022-11-18T13:11:26.387Z,7.72
2022-11-18T13:16:46.235Z,11.35
2022-11-18T13:22:11.480Z,10.95
2022-11-18T13:27:23.129Z,12.25
2022-11-18T13:32:26.976Z,6.72
2022-11-18T13:37:30.196Z,7.00
2022-11-18T13:47:39.938Z,14.70
2022-11-18T13:52:44.232Z,14.10
2022-11-18T13:57:47.904Z,15.80
2022-11-18T14:02:55.826Z,21.27
2022-11-18T14:08:06.101Z,19.20
2022-11-18T14:13:18.259Z,22.20
2022-11-18T14:18:28.864Z,23.27
2022-11-18T14:23:32.347Z,28.10
2022-11-18T14:33:40.540Z,32.10
2022-11-18T14:38:58.010Z,29.88
2022-11-18T14:44:08.428Z,30.67
2022-11-18T14:54:20.766Z,35.47
2022-11-18T14:59:27.717Z,32.03
2022-11-18T15:04:30.454Z,30.67
2022-11-18T15:09:34.205Z,31.97
2022-11-18T15:14:36.602Z,36.55
2022-11-18T15:19:40.609Z,35.25
2022-11-18T15:24:44.344Z,36.60
2022-11-18T15:29:46.786Z,31.35
2022-11-18T15:34:49.415Z,32.63
2022-11-18T15:39:53.171Z,32.60
2022-11-18T15:44:55.884Z,34.33
2022-11-18T15:49:59.452Z,37.83
2022-11-18T15:55:07.890Z,33.40
2022-11-18T16:00:13.060Z,33.90
2022-11-18T16:05:15.563Z,38.08
2022-11-18T16:10:36.801Z,36.28
2022-11-18T16:15:48.095Z,39.80
2022-11-18T16:20:51.678Z,39.65
2022-11-18T16:25:55.875Z,46.20
2022-11-18T16:31:16.015Z,43.90
2022-11-18T16:36:21.344Z,44.92
2022-11-18T16:41:34.326Z,48.55
2022-11-18T16:46:37.733Z,47.58
2022-11-18T16:51:40.727Z,42.28
2022-11-18T16:56:44.730Z,41.75
2022-11-18T17:01:47.154Z,38.47
2022-11-18T17:06:49.666Z,36.35
2022-11-18T17:11:54.233Z,37.55
2022-11-18T17:16:56.664Z,43.92
2022-11-18T17:21:59.389Z,40.90
2022-11-18T17:27:03.159Z,34.67
2022-11-18T17:32:05.886Z,45.20
2022-11-18T17:37:08.301Z,32.00
2022-11-18T17:42:14.921Z,36.67
2022-11-18T17:47:17.383Z,30.83
2022-11-18T17:52:19.821Z,36.38
2022-11-18T17:57:23.520Z,29.25
2022-11-18T18:02:26.054Z,28.58
2022-11-18T18:07:30.495Z,28.63
2022-11-18T18:12:53.343Z,27.77
2022-11-18T18:17:55.751Z,28.38
2022-11-18T18:22:58.610Z,27.27
2022-11-18T18:28:02.454Z,24.00
2022-11-18T18:33:04.889Z,28.55
2022-11-18T18:38:07.436Z,25.30
2022-11-18T18:43:11.508Z,22.38
2022-11-18T18:48:13.898Z,24.60
2022-11-18T18:53:16.304Z,25.85
2022-11-18T18:58:20.058Z,21.60
2022-11-18T19:03:22.456Z,20.13
2022-11-18T19:08:24.834Z,21.33
2022-11-18T19:13:30.429Z,20.63
2022-11-18T19:18:34.758Z,21.45
2022-11-18T19:23:37.168Z,24.92
2022-11-18T19:28:40.930Z,19.58
2022-11-18T19:33:44.089Z,19.15
2022-11-18T19:38:46.459Z,24.15
2022-11-18T19:43:50.180Z,32.13
2022-11-18T19:48:52.599Z,31.52
2022-11-18T19:53:59.585Z,27.50
2022-11-18T19:59:03.631Z,29.33
2022-11-18T20:04:06.222Z,32.42
2022-11-18T20:09:09.027Z,27.48
2022-11-18T20:14:13.090Z,31.23
2022-11-18T20:19:17.208Z,27.17
2022-11-18T20:24:19.859Z,28.52
2022-11-18T20:29:23.864Z,27.10
2022-11-18T20:34:26.325Z,27.27
2022-11-18T20:39:29.208Z,29.27
2022-11-18T20:44:33.328Z,30.00
2022-11-18T20:49:35.777Z,24.88
2022-11-18T20:54:38.208Z,26.00
2022-11-18T20:59:41.916Z,31.27
2022-11-18T21:04:44.352Z,23.65
2022-11-18T21:09:47.788Z,24.13
2022-11-18T21:14:51.509Z,24.02
2022-11-18T21:24:57.241Z,22.30
2022-11-18T21:30:01.119Z,27.63
2022-11-18T21:35:03.568Z,22.98
2022-11-18T21:40:06.478Z,18.65
2022-11-18T21:45:10.698Z,21.23
2022-11-18T21:50:13.172Z,23.55
2022-11-18T21:55:16.629Z,23.63
2022-11-18T22:00:20.492Z,25.02
2022-11-18T22:05:22.892Z,24.00
2022-11-18T22:10:25.311Z,27.63
2022-11-18T22:15:29.054Z,22.35
2022-11-18T22:20:31.461Z,26.95
2022-11-18T22:25:33.833Z,24.98
2022-11-18T22:30:37.556Z,24.67
2022-11-18T22:35:39.955Z,21.83
2022-11-18T22:40:42.459Z,22.50
2022-11-18T22:45:46.201Z,26.85
2022-11-18T22:50:56.400Z,22.77
2022-11-18T22:56:02.370Z,25.13
2022-11-18T23:01:07.239Z,23.60
2022-11-18T23:06:10.036Z,24.23
2022-11-18T23:11:13.515Z,23.80
2022-11-18T23:16:17.371Z,27.48
2022-11-18T23:21:19.770Z,26.25
2022-11-18T23:26:22.376Z,25.40
2022-11-18T23:31:27.249Z,25.23
2022-11-18T23:36:29.653Z,28.75
2022-11-18T23:41:32.041Z,25.88
2022-11-18T23:46:35.925Z,29.35
2022-11-18T23:51:38.324Z,30.08
2022-11-18T23:56:40.685Z,28.10
